Airfield :
LOGIN :

Register | Disclaimer

   EN    FR    IT 

 










Legend :    VFR   Marginal VFR   IFR   Intensive IFR   Very Intensive IFR
Visi :
Ceiling :
>= 8 km
>= 3000ft
5 to 8 km
1000 to 3000 ft
1500m to 5 km
500 to 1000 ft
800 to 1500m
200 to 500 ft
< 800m
< 200 ft
Symbols :   Thunderstorms  Fog  Heavy snow  Heavy precipitations  Wind > 20 kt
SIGMETs :     Misc.  Thunderstorms  Icing  Turbulence  Mountain Waves  Volcanic Ashes






- Airport Elevation : 38 ft
- IATA code : BOH


EGHH - Bournemouth

CURRENT METAR :
  • 150920Z 24011KT 9999 VCSH FEW025 SCT035CB 08/04 Q0996

EXPIRED METARs :
  • 150850Z 25010KT 9999 FEW025 SCT035CB 08/05 Q0995
  • 150820Z 25011KT 9999 -RA FEW025 SCT035 08/05 Q0995
  • 150750Z 25011KT 9999 -RA FEW031 SCT040 08/04 Q0995
  • 150720Z 25017KT 9999 FEW040 08/03 Q0994
  • 150650Z 23015G25KT 9999 FEW032 08/04 Q0993

TAF TAF EGHH
Valid from the 15 at 09:00 until the 15 at 18:00 UTC


150757Z 1509/1518 22010KT 9999 FEW035
TEMPO 1509/1518 7000 SHRA BKN010
PROB30
TEMPO 1509/1512 23015G25KT 4000 +SHRA BKN008
ATIS : +44 1202 364 151
Met : +44 1202 364 158 (TAF)



MET'MAP, your aeronautical weather chart ! - Copyright ORBIFLY December 2007 - Disclaimer

ORBIFLY MET'MAP TEAM :

Programming & Development : Alexandra Zaïnal
Concept & original design : Baudouin d'Aumeries
Assistance for programming : Marc-Olivier Méhu
Technical & hardware support : Manuel Goepfert

Contact : metmap@orbifly.com




SOURCES & CREDITS :

   NOAA